Date,TemperatureHighF,TemperatureAvgF,TemperatureLowF,DewpointHighF,DewpointAvgF,DewpointLowF,HumidityHigh,HumidityAvg,HumidityLow,PressureMaxIn,PressureMinIn,WindSpeedMaxMPH,WindSpeedAvgMPH,GustSpeedMaxMPH,PrecipitationSumIn
2013-3-1,55,44,27,34,30,21,86,60,40,30.11,30.07,15,-10,21,0.00
2013-3-2,57,46,34,34,28,21,80,52,24,30.10,29.80,23,8,31,0.00
2013-3-3,43,33,21,30,21,3,92,67,21,30.04,29.62,41,18,52,0.00
2013-3-4,27,20,9,19,15,5,92,80,63,30.26,30.04,23,7,30,0.00
2013-3-5,27,16,0,19,10,-8,85,77,67,30.16,29.97,10,3,0,0.00
2013-3-6,25,21,16,21,18,14,92,89,79,29.98,29.72,7,2,0,0.00
2013-3-7,34,23,9,27,18,7,92,83,68,30.01,29.78,8,1,0,0.00
2013-3-8,34,19,7,28,17,3,100,92,80,30.00,29.88,7,0,0,0.00
2013-3-9,45,32,18,25,21,14,100,67,39,30.15,29.92,13,-10,18,0.00
2013-3-10,48,35,19,34,24,16,92,65,39,30.12,29.95,22,8,29,0.00
2013-3-11,37,29,23,27,23,18,92,77,59,30.23,29.95,18,7,28,0.00
2013-3-12,45,30,21,36,25,19,92,81,65,30.22,29.90,12,5,16,0.00
2013-3-13,59,47,34,37,34,30,93,61,38,30.04,29.89,17,7,25,0.00
2013-3-14,57,37,19,37,30,18,92,75,47,30.06,29.90,16,6,22,0.00
2013-3-15,55,33,19,36,24,18,100,75,32,30.08,29.83,23,-8,35,0.00
2013-3-16,45,28,21,30,23,18,92,81,56,30.07,29.60,9,5,0,0.00
2013-3-17,34,20,12,25,13,3,100,77,52,29.94,29.50,24,10,31,0.00
2013-3-18,39,26,10,19,13,5,92,63,27,29.97,29.76,29,12,41,0.00
2013-3-19,43,27,10,19,11,3,92,58,22,30.14,29.96,12,5,17,0.00
2013-3-20,63,42,25,37,22,9,93,48,26,29.98,29.48,28,8,36,0.00
2013-3-21,45,36,21,34,18,9,93,53,24,29.86,29.52,27,12,35,0.00
2013-3-22,27,22,14,25,15,7,100,75,53,30.15,29.86,18,9,25,0.00
2013-3-23,34,17,1,14,6,-4,84,63,31,30.21,30.15,12,3,17,0.00
2013-3-24,37,22,5,16,8,1,92,59,25,30.23,30.12,10,2,0,0.00
2013-3-25,46,28,3,18,10,0,84,50,24,30.12,29.96,8,-143,0,0.00
2013-3-26,52,32,12,25,14,9,85,52,23,29.96,29.91,6,1,0,0.00
2013-3-27,57,37,14,30,20,9,85,55,22,29.99,29.91,10,2,0,0.00
2013-3-28,57,42,25,39,30,21,92,65,33,30.02,29.97,12,-28,22,0.00
2013-3-29,57,46,34,34,29,25,80,53,28,30.08,30.00,18,-12,28,0.00
2013-3-30,61,49,34,30,25,-100,69,43,23,30.17,30.01,17,-29,23,0.00
2013-3-31,55,44,30,30,25,19,80,51,27,30.15,29.96,18,-7,25,0.00